Terminal Aerodrome Forecast
Issued by NWS

Current Version | Previous Version | Text Only | Print | Product List | Glossary On
Versions: 1 2 3 4 5 6 7 8 9 10 11 12 13 14 15 16 17
000
FTUS42 KTAE 190538
TAFECP
TAF
KECP 190538Z 1906/2006 12004KT 6SM TSRA BR SCT015 OVC050CB
     FM191200 21010G20KT 3SM TSRA BKN020CB
     FM191900 21010G15KT P6SM OVC015
     FM200100 21005KT P6SM SCT250=

USA.gov is the U.S. government's official web portal to all federal, state and local government web resources and services.